createdAt,value
2022-11-03T00:01:37.728Z,87.58
2022-11-03T00:04:06.963Z,86.95
2022-11-03T00:06:35.538Z,87.17
2022-11-03T00:09:06.080Z,86.60
2022-11-03T00:11:35.221Z,86.52
2022-11-03T00:14:05.433Z,86.25
2022-11-03T00:16:33.941Z,86.83
2022-11-03T00:19:01.845Z,87.13
2022-11-03T00:21:31.578Z,87.09
2022-11-03T00:23:59.789Z,87.46
2022-11-03T00:26:29.311Z,87.55
2022-11-03T00:29:00.520Z,87.14
2022-11-03T00:31:31.504Z,86.92
2022-11-03T00:34:00.691Z,86.72
2022-11-03T00:36:30.064Z,86.93
2022-11-03T00:38:58.343Z,87.25
2022-11-03T00:41:27.229Z,87.09
2022-11-03T00:43:55.866Z,86.99
2022-11-03T00:46:25.173Z,87.01
2022-11-03T00:48:54.557Z,87.43
2022-11-03T00:51:25.157Z,87.99
2022-11-03T00:53:54.990Z,88.39
2022-11-03T00:56:24.962Z,88.30
2022-11-03T00:58:54.235Z,87.80
2022-11-03T01:01:23.681Z,87.77
2022-11-03T01:04:12.510Z,88.50
2022-11-03T01:06:51.062Z,88.04
2022-11-03T01:09:20.385Z,87.25
2022-11-03T01:11:54.434Z,87.20
2022-11-03T01:14:22.749Z,87.46
2022-11-03T01:16:50.733Z,88.76
2022-11-03T01:19:20.256Z,89.14
2022-11-03T01:21:48.188Z,88.82
2022-11-03T01:24:16.296Z,88.62
2022-11-03T01:26:44.234Z,88.05
2022-11-03T01:29:12.238Z,88.31
2022-11-03T01:31:40.613Z,87.84
2022-11-03T01:34:08.575Z,87.41
2022-11-03T01:36:37.911Z,87.29
2022-11-03T01:39:05.792Z,87.63
2022-11-03T01:41:33.688Z,87.81
2022-11-03T01:44:31.045Z,87.42
2022-11-03T01:47:07.653Z,87.87
2022-11-03T01:49:41.739Z,88.03
2022-11-03T01:52:17.635Z,87.42
2022-11-03T01:54:50.056Z,87.29
2022-11-03T01:57:22.853Z,88.03
2022-11-03T01:59:51.152Z,87.27
2022-11-03T02:02:25.541Z,87.84
2022-11-03T02:04:54.987Z,87.85
2022-11-03T02:07:27.954Z,87.01
2022-11-03T02:09:55.908Z,87.26
2022-11-03T02:12:24.288Z,87.80
2022-11-03T02:14:55.991Z,87.91
2022-11-03T02:17:26.944Z,87.73
2022-11-03T02:19:59.158Z,87.85
2022-11-03T02:23:00.476Z,87.71
2022-11-03T02:25:47.842Z,87.51
2022-11-03T02:28:18.676Z,87.83
2022-11-03T02:30:51.523Z,87.91
2022-11-03T02:33:30.849Z,88.34
2022-11-03T02:36:04.782Z,88.21
2022-11-03T02:38:35.197Z,87.89
2022-11-03T02:41:08.771Z,87.80
2022-11-03T02:43:36.955Z,88.32
2022-11-03T02:46:06.941Z,88.25
2022-11-03T02:48:35.281Z,87.91
2022-11-03T02:51:04.919Z,88.25
2022-11-03T02:53:37.996Z,88.55
2022-11-03T02:56:12.658Z,87.91
2022-11-03T02:58:49.613Z,87.53
2022-11-03T03:01:24.254Z,88.32
2022-11-03T03:03:56.399Z,88.38
2022-11-03T03:06:27.453Z,87.98
2022-11-03T03:08:59.740Z,88.08
2022-11-03T03:11:38.996Z,87.75
2022-11-03T03:14:13.511Z,87.92
2022-11-03T03:16:52.141Z,88.45
2022-11-03T03:19:27.196Z,87.87
2022-11-03T03:21:57.386Z,88.61
2022-11-03T03:24:35.071Z,88.60
2022-11-03T03:27:09.779Z,88.15
2022-11-03T03:29:42.965Z,88.01
2022-11-03T03:32:12.900Z,87.47
2022-11-03T03:34:43.859Z,87.66
2022-11-03T03:37:14.925Z,87.58
2022-11-03T03:39:47.257Z,87.90
2022-11-03T03:42:18.528Z,88.17
2022-11-03T03:44:47.699Z,88.55
2022-11-03T03:47:20.459Z,88.58
2022-11-03T03:49:48.446Z,87.94
2022-11-03T03:52:17.209Z,88.23
2022-11-03T03:54:45.135Z,88.32
2022-11-03T03:57:17.952Z,88.77
2022-11-03T03:59:47.550Z,88.81
2022-11-03T04:02:15.713Z,88.34
2022-11-03T04:04:43.777Z,88.23
2022-11-03T04:07:29.322Z,88.81
2022-11-03T04:09:57.281Z,88.03
2022-11-03T04:12:44.509Z,87.91
2022-11-03T04:15:31.900Z,88.56
2022-11-03T04:18:17.774Z,88.96
2022-11-03T04:21:02.776Z,87.99
2022-11-03T04:23:30.720Z,88.48
2022-11-03T04:25:58.913Z,88.72
2022-11-03T04:28:28.445Z,88.43
2022-11-03T04:30:59.200Z,88.58
2022-11-03T04:33:27.675Z,87.62
2022-11-03T04:35:58.923Z,88.30
2022-11-03T04:38:28.699Z,88.81
2022-11-03T04:40:59.518Z,88.14
2022-11-03T04:43:34.985Z,88.43
2022-11-03T04:46:03.626Z,88.67
2022-11-03T04:48:31.915Z,89.43
2022-11-03T04:51:01.589Z,88.81
2022-11-03T04:53:31.961Z,88.60
2022-11-03T04:56:06.965Z,89.08
2022-11-03T04:58:37.421Z,89.43
2022-11-03T05:01:11.273Z,89.16
2022-11-03T05:03:41.870Z,89.32
2022-11-03T05:06:15.705Z,89.87
2022-11-03T05:08:46.369Z,90.03
2022-11-03T05:11:20.570Z,89.76
2022-11-03T05:13:51.299Z,89.88
2022-11-03T05:16:20.466Z,89.76
2022-11-03T05:18:50.784Z,89.61
2022-11-03T05:21:20.305Z,90.24
2022-11-03T05:23:51.910Z,89.95
2022-11-03T05:26:23.712Z,90.01
2022-11-03T05:28:56.610Z,90.06
2022-11-03T05:31:27.262Z,89.69
2022-11-03T05:33:58.747Z,89.07
2022-11-03T05:36:29.134Z,89.45
2022-11-03T05:39:00.688Z,89.96
2022-11-03T05:41:31.485Z,89.73
2022-11-03T05:44:04.573Z,89.94
2022-11-03T05:46:34.941Z,89.66
2022-11-03T05:49:04.255Z,90.21
2022-11-03T05:51:38.809Z,89.93
2022-11-03T05:54:17.058Z,89.56
2022-11-03T05:56:48.551Z,89.14
2022-11-03T05:59:24.150Z,90.20
2022-11-03T06:01:54.259Z,90.08
2022-11-03T06:04:29.612Z,89.48
2022-11-03T06:07:03.083Z,90.21
2022-11-03T06:09:34.820Z,90.70
2022-11-03T06:12:06.658Z,90.23
2022-11-03T06:14:37.740Z,90.01
2022-11-03T06:17:07.611Z,89.59
2022-11-03T06:19:39.219Z,89.99
2022-11-03T06:22:15.375Z,89.66
2022-11-03T06:24:43.716Z,89.64
2022-11-03T06:27:15.472Z,90.07
2022-11-03T06:29:50.047Z,90.44
2022-11-03T06:32:18.424Z,90.80
2022-11-03T06:34:48.429Z,90.91
2022-11-03T06:37:21.314Z,88.75
2022-11-03T06:39:50.533Z,89.81
2022-11-03T06:42:21.774Z,90.29
2022-11-03T06:44:52.614Z,90.86
2022-11-03T06:47:25.894Z,92.61
2022-11-03T06:49:55.844Z,92.85
2022-11-03T06:52:29.706Z,92.66
2022-11-03T06:55:13.713Z,91.50
2022-11-03T06:57:47.883Z,91.60
2022-11-03T07:00:40.390Z,90.32
2022-11-03T07:03:15.823Z,90.69
2022-11-03T07:05:46.244Z,90.49
2022-11-03T07:08:23.745Z,90.59
2022-11-03T07:10:58.428Z,89.91
2022-11-03T07:13:28.416Z,89.72
2022-11-03T07:15:57.719Z,90.17
2022-11-03T07:18:28.642Z,90.06
2022-11-03T07:20:57.237Z,90.59
2022-11-03T07:23:28.007Z,90.86
2022-11-03T07:25:59.749Z,90.62
2022-11-03T07:28:33.029Z,91.06
2022-11-03T07:31:16.135Z,90.86
2022-11-03T07:33:44.647Z,91.16
2022-11-03T07:36:17.322Z,90.85
2022-11-03T07:38:48.450Z,91.13
2022-11-03T07:41:20.657Z,90.22
2022-11-03T07:43:54.746Z,90.01
2022-11-03T07:46:25.225Z,90.29
2022-11-03T07:48:55.578Z,91.09
2022-11-03T07:51:26.250Z,90.55
2022-11-03T07:53:56.381Z,91.55
2022-11-03T07:56:26.693Z,91.53
2022-11-03T07:59:00.541Z,92.27
2022-11-03T08:01:32.492Z,92.96
2022-11-03T08:04:05.321Z,92.07
2022-11-03T08:06:33.974Z,90.63
2022-11-03T08:09:01.958Z,92.19
2022-11-03T08:11:30.157Z,91.88
2022-11-03T08:13:58.569Z,91.02
2022-11-03T08:16:26.922Z,90.46
2022-11-03T08:18:56.188Z,89.56
2022-11-03T08:21:24.444Z,89.22
2022-11-03T08:23:52.453Z,88.59
2022-11-03T08:26:20.407Z,88.03
2022-11-03T08:28:48.562Z,87.17
2022-11-03T08:31:16.816Z,86.91
2022-11-03T08:33:44.864Z,86.68
2022-11-03T08:36:14.376Z,85.69
2022-11-03T08:38:42.642Z,85.48
2022-11-03T08:41:10.535Z,84.81
2022-11-03T08:43:38.444Z,84.73
2022-11-03T08:46:15.892Z,84.45
2022-11-03T08:48:46.162Z,84.93
2022-11-03T08:51:16.590Z,84.26
2022-11-03T08:53:45.219Z,84.56
2022-11-03T08:56:15.072Z,85.75
2022-11-03T08:58:44.567Z,85.95
2022-11-03T09:01:13.027Z,85.57
2022-11-03T09:03:42.178Z,85.83
2022-11-03T09:06:10.478Z,85.69
2022-11-03T09:11:27.658Z,86.15
2022-11-03T09:13:55.815Z,85.12
2022-11-03T09:16:23.715Z,85.13
2022-11-03T09:18:51.630Z,85.45
2022-11-03T09:21:19.569Z,85.50
2022-11-03T09:23:49.046Z,85.96
2022-11-03T09:26:17.095Z,85.69
2022-11-03T09:28:45.097Z,85.68
2022-11-03T09:31:12.997Z,85.76
2022-11-03T09:33:40.941Z,84.97
2022-11-03T09:36:09.491Z,85.43
2022-11-03T09:38:37.468Z,85.19
2022-11-03T09:41:18.618Z,85.51
2022-11-03T09:43:57.433Z,84.50
2022-11-03T09:46:26.625Z,83.81
2022-11-03T09:48:55.808Z,83.74
2022-11-03T09:51:27.349Z,83.42
2022-11-03T09:53:57.969Z,82.85
2022-11-03T09:56:27.993Z,82.11
2022-11-03T09:58:55.929Z,81.12
2022-11-03T10:01:24.250Z,81.65
2022-11-03T10:03:52.752Z,81.50
2022-11-03T10:06:21.376Z,81.67
2022-11-03T10:08:50.424Z,81.97
2022-11-03T10:11:19.001Z,81.07
2022-11-03T10:13:53.542Z,80.51
2022-11-03T10:16:24.489Z,80.57
2022-11-03T10:18:53.348Z,80.60
2022-11-03T10:21:24.920Z,78.99
2022-11-03T10:23:52.978Z,79.40
2022-11-03T10:26:22.008Z,79.25
2022-11-03T10:29:02.196Z,79.02
2022-11-03T10:31:35.482Z,82.71
2022-11-03T10:34:04.151Z,82.78
2022-11-03T10:36:33.563Z,81.69
2022-11-03T10:39:21.579Z,81.04
2022-11-03T10:41:57.738Z,80.00
2022-11-03T10:44:27.926Z,81.32
2022-11-03T10:47:00.433Z,80.80
2022-11-03T10:49:30.773Z,79.45
2022-11-03T10:52:10.968Z,78.98
2022-11-03T10:54:38.891Z,79.55
2022-11-03T10:57:07.222Z,80.03
2022-11-03T10:59:38.989Z,81.25
2022-11-03T11:02:17.388Z,80.83
2022-11-03T11:04:46.934Z,80.55
2022-11-03T11:07:21.526Z,80.94
2022-11-03T11:09:49.499Z,80.43
2022-11-03T11:12:20.049Z,80.00
2022-11-03T11:15:00.269Z,80.19
2022-11-03T11:17:45.460Z,79.16
2022-11-03T11:20:31.867Z,78.51
2022-11-03T11:23:44.602Z,78.30
2022-11-03T11:26:18.519Z,78.86
2022-11-03T11:28:48.123Z,78.15
2022-11-03T11:31:32.879Z,79.11
2022-11-03T11:34:40.036Z,79.72
2022-11-03T11:37:35.751Z,79.92
2022-11-03T11:40:10.308Z,80.58
2022-11-03T11:43:16.686Z,81.17
2022-11-03T11:46:36.381Z,82.39
2022-11-03T11:49:18.487Z,82.48
2022-11-03T11:51:46.915Z,82.09
2022-11-03T11:54:19.572Z,81.78
2022-11-03T11:56:49.765Z,84.83
2022-11-03T11:59:24.823Z,85.02
2022-11-03T12:01:56.899Z,86.13
2022-11-03T12:04:29.225Z,84.64
2022-11-03T12:06:57.703Z,84.11
2022-11-03T12:09:28.291Z,84.33
2022-11-03T12:12:00.460Z,81.86
2022-11-03T12:14:35.348Z,80.43
2022-11-03T12:17:34.149Z,77.54
2022-11-03T12:20:36.052Z,75.28
2022-11-03T12:23:04.010Z,81.83
2022-11-03T12:25:37.328Z,80.14
2022-11-03T12:28:05.806Z,79.44
2022-11-03T12:30:39.403Z,79.59
2022-11-03T12:33:08.168Z,79.92
2022-11-03T12:35:38.428Z,81.49
2022-11-03T12:38:06.349Z,83.06
2022-11-03T12:40:34.267Z,83.00
2022-11-03T12:43:02.221Z,84.66
2022-11-03T12:45:30.143Z,86.80
2022-11-03T12:47:58.070Z,88.23
2022-11-03T12:50:26.029Z,89.27
2022-11-03T12:52:55.382Z,90.62
2022-11-03T12:55:23.412Z,90.87
2022-11-03T12:57:51.416Z,92.14
2022-11-03T13:00:19.699Z,93.70
2022-11-03T13:02:47.826Z,94.58
2022-11-03T13:05:16.090Z,95.62
2022-11-03T13:07:44.551Z,96.47
2022-11-03T13:10:13.834Z,96.83
2022-11-03T13:12:41.868Z,96.31
2022-11-03T13:15:13.480Z,95.57
2022-11-03T13:18:06.978Z,95.78
2022-11-03T13:20:29.468Z,95.31
2022-11-03T13:22:57.488Z,95.98
2022-11-03T13:25:28.560Z,96.31
2022-11-03T13:27:57.112Z,97.29
2022-11-03T13:30:26.821Z,98.50
2022-11-03T13:32:55.117Z,98.85
2022-11-03T13:35:23.132Z,98.99
2022-11-03T13:37:51.041Z,98.81
2022-11-03T13:43:08.670Z,99.33
2022-11-03T13:45:36.945Z,99.55
2022-11-03T13:50:53.739Z,98.93
2022-11-03T13:56:12.833Z,98.24
2022-11-03T14:01:32.445Z,97.79
2022-11-03T14:06:48.591Z,97.72
2022-11-03T14:09:16.544Z,99.18
2022-11-03T14:12:01.746Z,99.19
2022-11-03T14:14:31.051Z,98.68
2022-11-03T14:16:59.047Z,99.54
2022-11-03T14:19:33.584Z,99.92
2022-11-03T14:22:05.975Z,99.44
2022-11-03T14:24:34.453Z,98.88
2022-11-03T14:27:02.339Z,98.43
2022-11-03T14:29:31.656Z,97.80
2022-11-03T14:31:59.722Z,96.21
2022-11-03T14:34:27.689Z,95.93
2022-11-03T14:36:55.800Z,94.90
2022-11-03T14:39:23.724Z,95.18
2022-11-03T14:42:06.867Z,94.37
2022-11-03T14:44:38.473Z,93.82
2022-11-03T14:47:07.927Z,93.63
2022-11-03T14:49:36.495Z,93.56
2022-11-03T14:52:07.336Z,93.15
2022-11-03T14:54:36.103Z,93.41
2022-11-03T14:57:04.953Z,92.66
2022-11-03T14:59:33.678Z,92.45
2022-11-03T15:02:03.878Z,92.65
2022-11-03T15:04:31.901Z,93.16
2022-11-03T15:06:59.858Z,93.76
2022-11-03T15:09:27.819Z,94.37
2022-11-03T15:11:55.767Z,95.22
2022-11-03T15:14:23.718Z,96.14
2022-11-03T15:16:51.670Z,96.11
2022-11-03T15:19:20.962Z,96.50
2022-11-03T15:21:48.905Z,96.12
2022-11-03T15:27:04.912Z,95.44
2022-11-03T15:29:32.825Z,95.49
2022-11-03T15:32:00.749Z,95.88
2022-11-03T15:34:30.010Z,95.87
2022-11-03T15:36:57.899Z,97.02
2022-11-03T15:39:25.797Z,99.02
2022-11-03T15:41:53.712Z,99.31
2022-11-03T15:44:21.622Z,100.00
2022-11-03T15:46:49.507Z,100.00
2022-11-03T15:49:17.393Z,100.00
2022-11-03T15:51:46.701Z,100.00
2022-11-03T15:54:14.602Z,99.72
2022-11-03T15:56:42.517Z,99.03
2022-11-03T15:59:10.547Z,97.67
2022-11-03T16:01:38.625Z,97.33
2022-11-03T16:04:06.810Z,96.71
2022-11-03T16:07:01.629Z,97.18
2022-11-03T16:09:24.030Z,97.16
2022-11-03T16:11:51.958Z,97.58
2022-11-03T16:14:20.090Z,97.24
2022-11-03T16:16:48.133Z,98.31
2022-11-03T16:19:16.026Z,98.35
2022-11-03T16:21:44.011Z,97.66
2022-11-03T16:24:12.407Z,95.92
2022-11-03T16:26:41.730Z,95.68
2022-11-03T16:29:09.637Z,95.81
2022-11-03T16:31:37.579Z,95.46
2022-11-03T16:34:05.551Z,94.23
2022-11-03T16:36:33.499Z,94.21
2022-11-03T16:39:01.372Z,94.39
2022-11-03T16:41:29.314Z,94.89
2022-11-03T16:43:58.849Z,95.51
2022-11-03T16:46:26.800Z,97.47
2022-11-03T16:48:55.487Z,100.00
2022-11-03T16:51:23.524Z,100.00
2022-11-03T16:53:52.791Z,100.00
2022-11-03T16:56:20.689Z,100.00
2022-11-03T16:58:48.643Z,100.00
2022-11-03T17:01:18.608Z,100.00
2022-11-03T17:03:46.649Z,100.00
2022-11-03T17:06:14.702Z,100.00
2022-11-03T17:08:57.993Z,100.00
2022-11-03T17:11:38.029Z,100.00
2022-11-03T17:14:07.095Z,100.00
2022-11-03T17:16:36.443Z,100.00
2022-11-03T17:19:04.518Z,100.00
2022-11-03T17:21:32.446Z,100.00
2022-11-03T17:24:00.551Z,100.00
2022-11-03T17:26:37.790Z,100.00
2022-11-03T17:29:14.771Z,100.00
2022-11-03T17:31:44.199Z,100.00
2022-11-03T17:34:13.026Z,100.00
2022-11-03T17:36:41.370Z,100.00
2022-11-03T17:39:11.748Z,100.00
2022-11-03T17:41:39.723Z,100.00
2022-11-03T17:44:12.082Z,100.00
2022-11-03T17:46:40.021Z,100.00
2022-11-03T17:49:09.403Z,100.00
2022-11-03T17:51:42.529Z,100.00
2022-11-03T17:54:17.221Z,100.00
2022-11-03T17:56:45.474Z,100.00
2022-11-03T17:59:15.823Z,100.00
2022-11-03T18:01:44.003Z,100.00
2022-11-03T18:06:48.087Z,100.00
2022-11-03T18:09:16.233Z,100.00
2022-11-03T18:12:02.415Z,100.00
2022-11-03T18:14:31.262Z,100.00
2022-11-03T18:16:59.393Z,100.00
2022-11-03T18:19:28.798Z,100.00
2022-11-03T18:21:57.261Z,100.00
2022-11-03T18:24:26.822Z,100.00
2022-11-03T18:26:54.710Z,100.00
2022-11-03T18:29:22.598Z,100.00
2022-11-03T18:31:50.963Z,100.00
2022-11-03T18:34:22.506Z,100.00
2022-11-03T18:36:52.817Z,100.00
2022-11-03T18:39:24.078Z,100.00
2022-11-03T18:41:52.093Z,100.00
2022-11-03T18:44:21.997Z,100.00
2022-11-03T18:46:51.292Z,100.00
2022-11-03T18:49:20.240Z,100.00
2022-11-03T18:51:51.975Z,100.00
2022-11-03T18:54:22.476Z,100.00
2022-11-03T18:56:51.161Z,100.00
2022-11-03T18:59:23.809Z,100.00
2022-11-03T19:01:52.053Z,100.00
2022-11-03T19:04:20.092Z,100.00
2022-11-03T19:06:49.481Z,100.00
2022-11-03T19:09:22.179Z,100.00
2022-11-03T19:11:51.006Z,100.00
2022-11-03T19:14:26.378Z,100.00
2022-11-03T19:19:44.647Z,100.00
2022-11-03T19:22:14.627Z,100.00
2022-11-03T19:24:45.129Z,100.00
2022-11-03T19:27:17.710Z,100.00
2022-11-03T19:29:47.918Z,100.00
2022-11-03T19:32:19.621Z,100.00
2022-11-03T19:34:48.616Z,100.00
2022-11-03T19:37:16.581Z,100.00
2022-11-03T19:39:47.016Z,100.00
2022-11-03T19:42:27.716Z,100.00
2022-11-03T19:44:56.009Z,100.00
2022-11-03T19:47:28.247Z,100.00
2022-11-03T19:50:00.260Z,100.00
2022-11-03T19:52:30.357Z,100.00
2022-11-03T19:55:03.400Z,100.00
2022-11-03T19:57:32.393Z,100.00
2022-11-03T20:00:00.376Z,100.00
2022-11-03T20:02:29.101Z,100.00
2022-11-03T20:04:57.242Z,100.00
2022-11-03T20:07:30.915Z,100.00
2022-11-03T20:10:02.587Z,100.00
2022-11-03T20:12:31.533Z,100.00
2022-11-03T20:14:59.643Z,100.00
2022-11-03T20:17:27.518Z,100.00
2022-11-03T20:19:55.510Z,100.00
2022-11-03T20:22:29.155Z,100.00
2022-11-03T20:25:03.250Z,100.00
2022-11-03T20:27:32.589Z,100.00
2022-11-03T20:30:01.006Z,100.00
2022-11-03T20:32:28.960Z,100.00
2022-11-03T20:34:56.861Z,100.00
2022-11-03T20:37:24.818Z,100.00
2022-11-03T20:39:52.798Z,100.00
2022-11-03T20:42:24.686Z,100.00
2022-11-03T20:44:53.299Z,100.00
2022-11-03T20:47:21.196Z,100.00
2022-11-03T20:49:49.215Z,100.00
2022-11-03T20:52:17.572Z,100.00
2022-11-03T20:54:46.004Z,100.00
2022-11-03T20:57:14.893Z,100.00
2022-11-03T20:59:44.194Z,100.00
2022-11-03T21:02:12.984Z,100.00
2022-11-03T21:04:41.533Z,100.00
2022-11-03T21:07:12.434Z,100.00
2022-11-03T21:09:40.690Z,100.00
2022-11-03T21:12:13.775Z,100.00
2022-11-03T21:15:05.137Z,100.00
2022-11-03T21:17:51.962Z,100.00
2022-11-03T21:20:19.970Z,100.00
2022-11-03T21:22:52.923Z,100.00
2022-11-03T21:25:23.279Z,100.00
2022-11-03T21:27:51.784Z,100.00
2022-11-03T21:30:20.569Z,100.00
2022-11-03T21:32:49.895Z,100.00
2022-11-03T21:35:19.447Z,100.00
2022-11-03T21:37:47.674Z,100.00
2022-11-03T21:40:15.941Z,100.00
2022-11-03T21:43:01.719Z,100.00
2022-11-03T21:45:29.651Z,100.00
2022-11-03T21:48:16.848Z,100.00
2022-11-03T21:50:45.127Z,100.00
2022-11-03T21:53:13.525Z,100.00
2022-11-03T21:55:41.804Z,100.00
2022-11-03T21:58:10.034Z,100.00
2022-11-03T22:00:37.969Z,100.00
2022-11-03T22:03:07.715Z,100.00
2022-11-03T22:05:35.769Z,100.00
2022-11-03T22:08:03.753Z,100.00
2022-11-03T22:10:31.629Z,100.00
2022-11-03T22:12:59.880Z,100.00
2022-11-03T22:15:45.118Z,100.00
2022-11-03T22:18:14.402Z,100.00
2022-11-03T22:20:59.764Z,100.00
2022-11-03T22:23:45.187Z,100.00
2022-11-03T22:26:34.122Z,100.00
2022-11-03T22:29:19.987Z,100.00
2022-11-03T22:31:48.125Z,100.00
2022-11-03T22:34:35.019Z,100.00
2022-11-03T22:37:02.975Z,100.00
2022-11-03T22:39:48.293Z,100.00
2022-11-03T22:42:33.936Z,100.00
2022-11-03T22:45:19.255Z,100.00
2022-11-03T22:47:47.169Z,100.00
2022-11-03T22:50:16.564Z,100.00
2022-11-03T22:52:44.590Z,100.00
2022-11-03T22:55:11.476Z,100.00
2022-11-03T22:57:39.375Z,100.00
2022-11-03T23:00:08.086Z,100.00
2022-11-03T23:02:36.101Z,100.00
2022-11-03T23:05:04.188Z,100.00
2022-11-03T23:07:40.845Z,100.00
2022-11-03T23:10:10.054Z,100.00
2022-11-03T23:12:37.944Z,100.00
2022-11-03T23:15:24.303Z,100.00
2022-11-03T23:18:09.498Z,100.00
2022-11-03T23:20:56.496Z,100.00
2022-11-03T23:23:43.436Z,100.00
2022-11-03T23:26:11.475Z,100.00
2022-11-03T23:28:39.413Z,100.00
2022-11-03T23:31:07.525Z,100.00
2022-11-03T23:33:35.750Z,100.00
2022-11-03T23:36:04.652Z,100.00
2022-11-03T23:38:34.460Z,100.00
2022-11-03T23:41:02.918Z,100.00
2022-11-03T23:43:31.015Z,100.00
2022-11-03T23:46:16.463Z,100.00
2022-11-03T23:48:47.574Z,100.00
2022-11-03T23:51:16.672Z,100.00
2022-11-03T23:53:46.848Z,100.00
2022-11-03T23:56:32.909Z,100.00
2022-11-03T23:59:00.862Z,100.00
